CheckWX is a tool to help pilots better visualize weather data.  It is not intended as a substitute for an official pre-flight weather briefing.

02:50:27 UTC

KJXI METAR
Fox Stephens Field - Gilmer Municipal Airport
Gilmer, Texas, USA
Current

15 mins ago

KJXI 230235Z AUTO 15004KT 10SM CLR 27/22 A3001 RMK AO2 T02670220
Observed
Sep-23 @ 02:35 UTC
Wind
  • 150° at 4 KTS
Visibility
10 SM
Flight Rules
VFR
Cloud Levels
  • Clear skies
Temperature
27°C / 81°F
Dewpoint
22°C / 72°F
Heat Index
29°C / 85°F
Humidity
74%
Altimeter
30.01" Hg
Pressure
1016.22 hPa
Previous

35 mins ago

KJXI 230215Z AUTO 16006KT 10SM CLR 27/22 A3001 RMK AO2 T02700222
Observed
Sep-23 @ 02:15 UTC
Wind
  • 160° at 6 KTS
Visibility
10 SM
Flight Rules
VFR
Cloud Levels
  • Clear skies
Temperature
27°C / 81°F
Dewpoint
22°C / 72°F
Heat Index
29°C / 85°F
Humidity
74%
Altimeter
30.01" Hg
Pressure
1016.22 hPa
Previous

55 mins ago

KJXI 230155Z AUTO 16006KT 10SM CLR 28/22 A3000 RMK AO2 T02750222
Observed
Sep-23 @ 01:55 UTC
Wind
  • 160° at 6 KTS
Visibility
10 SM
Flight Rules
VFR
Cloud Levels
  • Clear skies
Temperature
28°C / 82°F
Dewpoint
22°C / 72°F
Heat Index
30°C / 86°F
Humidity
70%
Altimeter
30" Hg
Pressure
1015.92 hPa